createdAt,value
2022-10-30T00:00:06.019Z,72.04
2022-10-30T00:01:06.597Z,72.14
2022-10-30T00:02:07.351Z,72.24
2022-10-30T00:03:08.004Z,72.24
2022-10-30T00:04:08.614Z,72.34
2022-10-30T00:05:09.196Z,72.34
2022-10-30T00:06:10.426Z,72.24
2022-10-30T00:07:10.519Z,72.14
2022-10-30T00:08:11.067Z,72.04
2022-10-30T00:09:11.625Z,71.94
2022-10-30T00:10:12.185Z,71.84
2022-10-30T00:11:12.780Z,71.73
2022-10-30T00:12:13.338Z,71.53
2022-10-30T00:13:13.891Z,71.53
2022-10-30T00:14:14.455Z,71.33
2022-10-30T00:15:15.012Z,71.33
2022-10-30T00:16:15.647Z,71.23
2022-10-30T00:17:16.193Z,71.23
2022-10-30T00:18:16.754Z,71.13
2022-10-30T00:19:17.304Z,71.23
2022-10-30T00:20:17.887Z,71.33
2022-10-30T00:21:18.556Z,71.33
2022-10-30T00:22:19.110Z,71.33
2022-10-30T00:23:19.668Z,71.33
2022-10-30T00:24:20.221Z,71.33
2022-10-30T00:25:20.783Z,71.23
2022-10-30T00:26:21.367Z,71.33
2022-10-30T00:27:21.925Z,71.33
2022-10-30T00:28:22.479Z,71.33
2022-10-30T00:29:23.057Z,71.33
2022-10-30T00:30:23.615Z,71.33
2022-10-30T00:31:24.302Z,71.44
2022-10-30T00:32:24.863Z,71.44
2022-10-30T00:33:25.435Z,71.44
2022-10-30T00:34:25.998Z,71.33
2022-10-30T00:35:26.586Z,71.03
2022-10-30T00:36:27.791Z,71.03
2022-10-30T00:37:27.844Z,70.93
2022-10-30T00:38:28.396Z,70.83
2022-10-30T00:39:28.969Z,70.62
2022-10-30T00:40:29.529Z,70.53
2022-10-30T00:41:30.107Z,70.22
2022-10-30T00:42:30.666Z,70.12
2022-10-30T00:43:31.226Z,70.02
2022-10-30T00:44:31.805Z,69.92
2022-10-30T00:45:32.355Z,69.78
2022-10-30T00:46:32.933Z,69.68
2022-10-30T00:47:33.490Z,69.68
2022-10-30T00:48:34.055Z,69.68
2022-10-30T00:49:34.625Z,69.68
2022-10-30T00:50:35.216Z,69.58
2022-10-30T00:51:35.875Z,69.58
2022-10-30T00:52:36.426Z,69.48
2022-10-30T00:53:36.979Z,69.48
2022-10-30T00:54:37.528Z,69.38
2022-10-30T00:55:38.077Z,69.28
2022-10-30T00:56:38.702Z,69.18
2022-10-30T00:57:39.271Z,68.87
2022-10-30T00:58:39.823Z,68.77
2022-10-30T00:59:40.389Z,68.77
2022-10-30T01:00:40.939Z,68.67
2022-10-30T01:01:41.705Z,68.77
2022-10-30T01:02:42.396Z,68.77
2022-10-30T01:03:42.973Z,68.57
2022-10-30T01:04:43.529Z,68.67
2022-10-30T01:05:44.108Z,68.57
2022-10-30T01:06:44.822Z,68.57
2022-10-30T01:07:45.375Z,68.71
2022-10-30T01:08:45.965Z,68.71
2022-10-30T01:09:46.562Z,68.80
2022-10-30T01:10:47.116Z,68.91
2022-10-30T01:11:47.773Z,69.01
2022-10-30T01:12:48.318Z,69.01
2022-10-30T01:13:48.890Z,69.11
2022-10-30T01:14:49.442Z,69.11
2022-10-30T01:15:50.011Z,69.11
2022-10-30T01:16:50.604Z,69.11
2022-10-30T01:17:51.154Z,68.80
2022-10-30T01:18:51.712Z,68.91
2022-10-30T01:19:52.317Z,69.01
2022-10-30T01:20:52.944Z,69.01
2022-10-30T01:21:53.561Z,69.11
2022-10-30T01:22:54.124Z,69.21
2022-10-30T01:23:54.675Z,69.31
2022-10-30T01:24:55.240Z,69.21
2022-10-30T01:25:55.861Z,68.80
2022-10-30T01:26:56.490Z,68.80
2022-10-30T01:27:57.048Z,68.91
2022-10-30T01:28:57.613Z,69.01
2022-10-30T01:29:58.163Z,68.80
2022-10-30T01:30:58.730Z,68.91
2022-10-30T01:31:59.415Z,68.91
2022-10-30T01:33:00.519Z,68.80
2022-10-30T01:34:00.872Z,68.40
2022-10-30T01:35:01.430Z,68.20
2022-10-30T01:36:02.017Z,68.30
2022-10-30T01:37:02.729Z,68.51
2022-10-30T01:38:03.295Z,68.71
2022-10-30T01:39:03.879Z,69.01
2022-10-30T01:40:04.437Z,69.42
2022-10-30T01:41:04.989Z,69.51
2022-10-30T01:42:05.561Z,69.21
2022-10-30T01:43:06.108Z,68.87
2022-10-30T01:44:06.666Z,68.17
2022-10-30T01:45:07.223Z,67.97
2022-10-30T01:46:07.788Z,67.76
2022-10-30T01:47:08.380Z,67.76
2022-10-30T01:49:09.878Z,67.86
2022-10-30T01:50:10.449Z,68.04
2022-10-30T01:51:11.029Z,68.44
2022-10-30T01:52:11.658Z,68.74
2022-10-30T01:53:12.209Z,69.04
2022-10-30T01:54:12.771Z,68.95
2022-10-30T01:55:13.326Z,68.33
2022-10-30T01:56:13.884Z,67.33
2022-10-30T01:57:14.470Z,67.43
2022-10-30T01:58:15.022Z,66.99
2022-10-30T01:59:15.573Z,67.19
2022-10-30T02:00:16.128Z,67.50
2022-10-30T02:01:16.855Z,67.80
2022-10-30T02:02:17.830Z,68.01
2022-10-30T02:03:18.020Z,67.90
2022-10-30T02:04:18.580Z,68.21
2022-10-30T02:05:19.142Z,68.51
2022-10-30T02:06:19.711Z,68.10
2022-10-30T02:07:20.301Z,67.90
2022-10-30T02:08:20.855Z,67.19
2022-10-30T02:09:21.409Z,66.76
2022-10-30T02:10:21.964Z,66.56
2022-10-30T02:11:22.542Z,66.46
2022-10-30T02:12:23.132Z,65.78
2022-10-30T02:13:23.690Z,65.78
2022-10-30T02:14:24.249Z,65.99
2022-10-30T02:15:24.799Z,66.29
2022-10-30T02:16:25.347Z,66.52
2022-10-30T02:17:25.934Z,66.72
2022-10-30T02:18:26.494Z,67.13
2022-10-30T02:19:27.049Z,67.53
2022-10-30T02:20:27.615Z,67.73
2022-10-30T02:21:28.201Z,67.93
2022-10-30T02:22:29.019Z,67.93
2022-10-30T02:23:29.653Z,67.93
2022-10-30T02:24:30.215Z,68.04
2022-10-30T02:25:30.771Z,67.93
2022-10-30T02:26:31.330Z,67.80
2022-10-30T02:27:31.985Z,67.60
2022-10-30T02:28:32.538Z,67.60
2022-10-30T02:29:33.093Z,68.81
2022-10-30T02:30:33.640Z,71.91
2022-10-30T02:31:34.191Z,72.81
2022-10-30T02:32:34.774Z,72.98
2022-10-30T02:33:35.355Z,72.98
2022-10-30T02:34:35.924Z,73.05
2022-10-30T02:35:36.513Z,72.85
2022-10-30T02:36:37.095Z,72.85
2022-10-30T02:37:37.780Z,72.81
2022-10-30T02:38:38.332Z,73.32
2022-10-30T02:39:38.891Z,73.68
2022-10-30T02:40:39.443Z,73.48
2022-10-30T02:41:40.000Z,72.77
2022-10-30T02:42:40.586Z,72.24
2022-10-30T02:43:41.139Z,72.24
2022-10-30T02:44:41.690Z,71.94
2022-10-30T02:45:42.246Z,72.03
2022-10-30T02:46:42.812Z,70.70
2022-10-30T02:47:43.401Z,69.69
2022-10-30T02:48:43.960Z,68.98
2022-10-30T02:49:44.513Z,68.48
2022-10-30T02:50:45.077Z,68.48
2022-10-30T02:51:45.652Z,68.98
2022-10-30T02:52:46.337Z,70.29
2022-10-30T02:53:46.897Z,70.79
2022-10-30T02:54:47.454Z,71.06
2022-10-30T02:55:48.014Z,70.50
2022-10-30T02:56:48.568Z,69.79
2022-10-30T02:57:49.223Z,69.85
2022-10-30T02:58:49.780Z,69.76
2022-10-30T02:59:50.335Z,69.76
2022-10-30T03:00:50.909Z,69.35
2022-10-30T03:01:51.647Z,69.25
2022-10-30T03:03:51.848Z,68.25
2022-10-30T03:04:53.409Z,68.85
2022-10-30T03:05:53.965Z,68.85
2022-10-30T03:06:54.546Z,69.06
2022-10-30T03:07:55.392Z,69.06
2022-10-30T03:08:55.677Z,67.14
2022-10-30T03:09:56.243Z,67.65
2022-10-30T03:10:56.796Z,67.35
2022-10-30T03:11:57.389Z,68.25
2022-10-30T03:12:57.980Z,68.65
2022-10-30T03:13:58.560Z,67.44
2022-10-30T03:14:59.124Z,66.64
2022-10-30T03:15:59.679Z,66.34
2022-10-30T03:17:00.245Z,67.04
2022-10-30T03:18:01.039Z,66.84
2022-10-30T03:19:01.762Z,67.94
2022-10-30T03:20:02.312Z,66.34
2022-10-30T03:21:02.869Z,66.24
2022-10-30T03:22:03.459Z,66.34
2022-10-30T03:23:04.084Z,66.94
2022-10-30T03:24:04.634Z,67.55
2022-10-30T03:25:05.198Z,68.35
2022-10-30T03:26:05.758Z,67.14
2022-10-30T03:27:06.316Z,67.94
2022-10-30T03:28:06.914Z,69.25
2022-10-30T03:29:07.469Z,69.65
2022-10-30T03:30:08.022Z,69.06
2022-10-30T03:31:08.579Z,66.84
2022-10-30T03:32:09.247Z,66.54
2022-10-30T03:33:09.938Z,68.45
2022-10-30T03:34:10.491Z,69.42
2022-10-30T03:35:11.036Z,69.85
2022-10-30T03:36:11.582Z,69.62
2022-10-30T03:37:12.166Z,69.06
2022-10-30T03:38:12.858Z,69.15
2022-10-30T03:39:13.411Z,69.15
2022-10-30T03:40:13.983Z,68.55
2022-10-30T03:41:14.542Z,69.56
2022-10-30T03:42:15.093Z,70.16
2022-10-30T03:43:15.822Z,69.76
2022-10-30T03:44:16.373Z,69.45
2022-10-30T03:45:16.940Z,69.15
2022-10-30T03:46:17.494Z,68.05
2022-10-30T03:47:18.043Z,66.94
2022-10-30T03:48:18.683Z,69.06
2022-10-30T03:49:19.235Z,68.35
2022-10-30T03:50:19.782Z,68.35
2022-10-30T03:51:20.335Z,67.24
2022-10-30T03:52:20.916Z,66.64
2022-10-30T03:53:21.549Z,66.03
2022-10-30T03:54:22.106Z,66.24
2022-10-30T03:55:22.662Z,67.04
2022-10-30T03:56:23.219Z,66.14
2022-10-30T03:57:23.771Z,67.04
2022-10-30T03:58:24.367Z,67.65
2022-10-30T03:59:24.940Z,67.14
2022-10-30T04:00:25.513Z,67.85
2022-10-30T04:01:26.221Z,67.85
2022-10-30T04:02:26.906Z,69.22
2022-10-30T04:03:27.641Z,68.15
2022-10-30T04:04:28.214Z,68.35
2022-10-30T04:05:28.774Z,69.72
2022-10-30T04:06:29.329Z,69.92
2022-10-30T04:07:29.976Z,69.15
2022-10-30T04:08:30.577Z,68.85
2022-10-30T04:09:31.127Z,68.85
2022-10-30T04:10:31.691Z,68.85
2022-10-30T04:11:32.321Z,68.85
2022-10-30T04:12:32.928Z,68.95
2022-10-30T04:13:33.521Z,69.15
2022-10-30T04:14:34.073Z,67.65
2022-10-30T04:15:34.629Z,66.14
2022-10-30T04:16:35.186Z,66.24
2022-10-30T04:17:35.742Z,65.64
2022-10-30T04:18:36.373Z,66.54
2022-10-30T04:19:36.920Z,65.03
2022-10-30T04:20:37.471Z,65.53
2022-10-30T04:21:38.025Z,66.03
2022-10-30T04:22:38.556Z,67.04
2022-10-30T04:23:39.172Z,68.35
2022-10-30T04:24:39.731Z,68.65
2022-10-30T04:25:40.305Z,68.45
2022-10-30T04:26:40.865Z,68.25
2022-10-30T04:27:41.426Z,68.05
2022-10-30T04:28:42.018Z,67.24
2022-10-30T04:29:42.521Z,67.74
2022-10-30T04:30:43.017Z,67.85
2022-10-30T04:31:43.513Z,67.85
2022-10-30T04:32:44.013Z,67.24
2022-10-30T04:33:44.641Z,67.55
2022-10-30T04:34:45.141Z,67.24
2022-10-30T04:35:45.646Z,66.64
2022-10-30T04:36:46.153Z,66.84
2022-10-30T04:37:46.678Z,67.24
2022-10-30T04:38:47.380Z,66.03
2022-10-30T04:39:47.879Z,66.24
2022-10-30T04:40:48.385Z,66.14
2022-10-30T04:41:48.882Z,65.94
2022-10-30T04:42:49.373Z,65.73
2022-10-30T04:43:49.912Z,66.34
2022-10-30T04:44:50.413Z,66.94
2022-10-30T04:45:50.917Z,68.15
2022-10-30T04:46:51.416Z,68.55
2022-10-30T04:47:51.924Z,67.74
2022-10-30T04:48:52.451Z,67.04
2022-10-30T04:49:52.951Z,67.94
2022-10-30T04:50:53.447Z,68.05
2022-10-30T04:51:53.947Z,68.25
2022-10-30T04:52:54.470Z,67.65
2022-10-30T04:53:55.123Z,67.94
2022-10-30T04:54:55.625Z,68.55
2022-10-30T04:55:56.127Z,69.35
2022-10-30T04:56:56.626Z,67.24
2022-10-30T04:57:57.519Z,65.94
2022-10-30T04:58:57.802Z,64.63
2022-10-30T04:59:58.303Z,64.23
2022-10-30T05:01:02.075Z,64.63
2022-10-30T05:01:59.857Z,65.44
2022-10-30T05:03:00.405Z,65.84
2022-10-30T05:04:01.008Z,66.84
2022-10-30T05:05:01.505Z,67.04
2022-10-30T05:06:02.004Z,67.04
2022-10-30T05:07:02.501Z,67.24
2022-10-30T05:08:03.312Z,67.24
2022-10-30T05:09:03.903Z,67.35
2022-10-30T05:10:04.415Z,67.44
2022-10-30T05:11:04.913Z,66.84
2022-10-30T05:12:05.415Z,66.44
2022-10-30T05:13:05.915Z,65.84
2022-10-30T05:14:06.442Z,65.53
2022-10-30T05:15:06.945Z,65.73
2022-10-30T05:16:07.475Z,65.84
2022-10-30T05:17:07.966Z,65.94
2022-10-30T05:18:08.462Z,65.73
2022-10-30T05:19:09.077Z,65.33
2022-10-30T05:20:10.549Z,65.03
2022-10-30T05:21:10.201Z,65.23
2022-10-30T05:22:10.699Z,66.44
2022-10-30T05:23:11.231Z,67.55
2022-10-30T05:24:11.794Z,67.55
2022-10-30T05:25:12.290Z,67.55
2022-10-30T05:26:12.786Z,67.55
2022-10-30T05:27:13.288Z,67.55
2022-10-30T05:28:13.782Z,67.94
2022-10-30T05:29:14.359Z,67.94
2022-10-30T05:30:14.858Z,68.15
2022-10-30T05:31:15.374Z,67.85
2022-10-30T05:32:15.883Z,67.85
2022-10-30T05:33:16.396Z,67.14
2022-10-30T05:34:17.053Z,66.94
2022-10-30T05:35:17.552Z,66.94
2022-10-30T05:36:18.088Z,66.61
2022-10-30T05:37:18.590Z,66.41
2022-10-30T05:38:19.137Z,66.00
2022-10-30T05:39:19.758Z,66.11
2022-10-30T05:40:20.270Z,65.50
2022-10-30T05:41:20.764Z,65.20
2022-10-30T05:42:21.271Z,64.90
2022-10-30T05:43:21.766Z,64.50
2022-10-30T05:44:40.490Z,64.80
2022-10-30T05:45:23.157Z,64.90
2022-10-30T05:46:23.649Z,64.90
2022-10-30T05:47:24.139Z,65.41
2022-10-30T05:48:24.636Z,65.30
2022-10-30T05:49:25.247Z,65.30
2022-10-30T05:50:25.751Z,65.91
2022-10-30T05:51:26.254Z,66.20
2022-10-30T05:52:26.755Z,66.20
2022-10-30T05:53:27.297Z,65.97
2022-10-30T05:54:27.853Z,66.08
2022-10-30T05:55:28.366Z,66.67
2022-10-30T05:56:28.867Z,65.37
2022-10-30T05:57:29.366Z,65.50
2022-10-30T05:58:29.866Z,66.20
2022-10-30T05:59:30.400Z,66.91
2022-10-30T06:00:30.895Z,68.79
2022-10-30T06:01:31.601Z,67.61
2022-10-30T06:02:32.280Z,67.61
2022-10-30T06:03:32.813Z,67.71
2022-10-30T06:04:33.403Z,67.98
2022-10-30T06:05:33.914Z,68.32
2022-10-30T06:06:34.440Z,68.41
2022-10-30T06:07:34.941Z,68.41
2022-10-30T06:08:35.466Z,68.21
2022-10-30T06:09:36.018Z,69.32
2022-10-30T06:10:36.518Z,68.12
2022-10-30T06:11:37.012Z,68.21
2022-10-30T06:12:37.505Z,67.61
2022-10-30T06:13:37.994Z,67.21
2022-10-30T06:14:38.704Z,67.71
2022-10-30T06:15:39.214Z,68.41
2022-10-30T06:16:39.729Z,67.61
2022-10-30T06:17:40.228Z,66.61
2022-10-30T06:18:40.726Z,66.61
2022-10-30T06:19:41.257Z,66.20
2022-10-30T06:20:41.746Z,65.91
2022-10-30T06:21:42.253Z,65.30
2022-10-30T06:22:42.760Z,65.41
2022-10-30T06:23:43.285Z,65.41
2022-10-30T06:24:43.857Z,65.70
2022-10-30T06:25:44.379Z,66.61
2022-10-30T06:26:44.882Z,67.08
2022-10-30T06:27:45.413Z,67.18
2022-10-30T06:28:45.918Z,66.88
2022-10-30T06:29:46.545Z,66.78
2022-10-30T06:30:47.045Z,66.58
2022-10-30T06:31:47.558Z,67.68
2022-10-30T06:32:48.063Z,67.18
2022-10-30T06:33:48.583Z,66.35
2022-10-30T06:34:49.199Z,61.92
2022-10-30T06:35:49.698Z,58.61
2022-10-30T06:36:50.233Z,56.53
2022-10-30T06:37:50.895Z,54.56
2022-10-30T06:38:51.429Z,52.81
2022-10-30T06:39:52.065Z,52.22
2022-10-30T06:40:52.568Z,54.24
2022-10-30T06:41:53.096Z,53.86
2022-10-30T06:42:53.614Z,52.00
2022-10-30T06:43:54.117Z,51.05
2022-10-30T06:44:54.709Z,49.29
2022-10-30T06:45:55.266Z,47.98
2022-10-30T06:46:55.811Z,47.14
2022-10-30T06:47:56.791Z,46.42
2022-10-30T06:48:57.048Z,45.93
2022-10-30T06:49:57.581Z,45.31
2022-10-30T06:50:58.082Z,45.01
2022-10-30T06:51:58.580Z,44.72
2022-10-30T06:52:59.085Z,44.50
2022-10-30T06:53:59.611Z,46.57
2022-10-30T06:55:00.269Z,45.73
2022-10-30T06:56:00.770Z,45.34
2022-10-30T06:57:01.271Z,45.00
2022-10-30T06:58:02.149Z,44.06
2022-10-30T06:59:02.448Z,43.25
2022-10-30T07:00:02.971Z,42.83
2022-10-30T07:01:03.473Z,43.35
2022-10-30T07:02:06.914Z,44.31
2022-10-30T07:03:04.571Z,44.97
2022-10-30T07:04:05.092Z,43.96
2022-10-30T07:05:05.626Z,43.05
2022-10-30T07:06:06.133Z,42.22
2022-10-30T07:07:06.632Z,41.20
2022-10-30T07:08:07.145Z,42.26
2022-10-30T07:09:07.676Z,46.03
2022-10-30T07:10:08.209Z,48.00
2022-10-30T07:11:08.720Z,49.26
2022-10-30T07:12:09.234Z,50.48
2022-10-30T07:13:09.751Z,48.62
2022-10-30T07:14:10.274Z,50.35
2022-10-30T07:15:10.943Z,51.03
2022-10-30T07:16:11.439Z,52.07
2022-10-30T07:17:11.932Z,53.41
2022-10-30T07:18:12.432Z,54.04
2022-10-30T07:19:12.921Z,55.99
2022-10-30T07:20:13.970Z,56.64
2022-10-30T07:21:14.481Z,56.87
2022-10-30T07:22:14.983Z,57.59
2022-10-30T07:23:15.488Z,58.69
2022-10-30T07:24:16.016Z,57.92
2022-10-30T07:25:16.633Z,57.62
2022-10-30T07:26:17.134Z,58.25
2022-10-30T07:27:17.632Z,58.65
2022-10-30T07:28:18.131Z,58.07
2022-10-30T07:29:18.638Z,57.87
2022-10-30T07:30:19.333Z,57.98
2022-10-30T07:31:29.020Z,59.70
2022-10-30T07:32:20.722Z,60.21
2022-10-30T07:33:21.227Z,61.31
2022-10-30T07:34:21.733Z,62.51
2022-10-30T07:35:22.252Z,62.31
2022-10-30T07:36:22.757Z,60.41
2022-10-30T07:37:23.261Z,59.20
2022-10-30T07:38:23.758Z,59.20
2022-10-30T07:39:24.273Z,59.00
2022-10-30T07:40:24.995Z,59.50
2022-10-30T07:41:25.498Z,59.70
2022-10-30T07:42:26.000Z,60.38
2022-10-30T07:43:26.518Z,59.18
2022-10-30T07:44:27.014Z,59.78
2022-10-30T07:45:27.533Z,59.98
2022-10-30T07:46:28.025Z,60.38
2022-10-30T07:47:28.537Z,59.98
2022-10-30T07:48:29.037Z,60.45
2022-10-30T07:49:29.543Z,61.18
2022-10-30T07:50:30.070Z,60.28
2022-10-30T07:51:30.590Z,60.48
2022-10-30T07:52:31.095Z,60.38
2022-10-30T07:53:31.595Z,61.48
2022-10-30T07:54:32.126Z,61.38
2022-10-30T07:55:32.705Z,62.18
2022-10-30T07:56:33.202Z,62.92
2022-10-30T07:57:33.695Z,63.01
2022-10-30T07:58:34.195Z,61.28
2022-10-30T07:59:34.788Z,61.18
2022-10-30T08:00:35.386Z,60.95
2022-10-30T08:01:36.017Z,59.95
2022-10-30T08:02:36.743Z,59.65
2022-10-30T08:03:37.392Z,58.65
2022-10-30T08:04:37.901Z,58.32
2022-10-30T08:05:38.424Z,57.59
2022-10-30T08:06:38.923Z,57.57
2022-10-30T08:07:39.447Z,56.49
2022-10-30T08:08:43.204Z,57.59
2022-10-30T08:09:40.669Z,58.00
2022-10-30T08:10:41.199Z,57.79
2022-10-30T08:11:41.707Z,57.09
2022-10-30T08:12:42.211Z,56.99
2022-10-30T08:13:42.713Z,58.12
2022-10-30T08:14:43.212Z,58.42
2022-10-30T08:15:43.755Z,57.89
2022-10-30T08:16:44.292Z,56.46
2022-10-30T08:17:44.793Z,57.46
2022-10-30T08:18:45.289Z,56.94
2022-10-30T08:19:45.782Z,56.01
2022-10-30T08:20:46.316Z,55.09
2022-10-30T08:21:46.825Z,54.46
2022-10-30T08:22:47.321Z,54.27
2022-10-30T08:23:47.819Z,52.74
2022-10-30T08:24:48.354Z,52.12
2022-10-30T08:25:48.911Z,51.70
2022-10-30T08:26:49.411Z,51.40
2022-10-30T08:27:49.906Z,50.98
2022-10-30T08:28:50.414Z,50.78
2022-10-30T08:29:50.915Z,50.45
2022-10-30T08:30:51.496Z,51.03
2022-10-30T08:31:51.989Z,50.93
2022-10-30T08:32:52.485Z,51.03
2022-10-30T08:33:52.987Z,51.03
2022-10-30T08:34:53.479Z,51.54
2022-10-30T08:35:54.002Z,52.42
2022-10-30T08:36:54.504Z,51.92
2022-10-30T08:37:55.032Z,50.70
2022-10-30T08:38:55.686Z,50.18
2022-10-30T08:39:56.217Z,50.16
2022-10-30T08:40:56.835Z,50.16
2022-10-30T08:41:57.328Z,50.23
2022-10-30T08:42:57.840Z,50.23
2022-10-30T08:43:58.357Z,48.62
2022-10-30T08:44:58.853Z,47.98
2022-10-30T08:45:59.392Z,47.78
2022-10-30T08:46:59.910Z,47.90
2022-10-30T08:48:01.164Z,48.60
2022-10-30T08:49:01.061Z,46.94
2022-10-30T08:50:01.576Z,46.25
2022-10-30T08:51:02.108Z,46.27
2022-10-30T08:52:02.610Z,45.95
2022-10-30T08:53:03.431Z,46.49
2022-10-30T08:54:03.823Z,46.45
2022-10-30T08:55:04.347Z,44.78
2022-10-30T08:56:04.900Z,42.83
2022-10-30T08:57:05.406Z,41.49
2022-10-30T08:58:05.914Z,39.78
2022-10-30T08:59:06.416Z,38.34
2022-10-30T09:00:06.911Z,36.90
2022-10-30T09:01:07.529Z,35.37
2022-10-30T09:02:08.249Z,34.26
2022-10-30T09:03:08.859Z,34.36
2022-10-30T09:04:09.361Z,34.05
2022-10-30T09:05:09.863Z,33.85
2022-10-30T09:06:10.400Z,33.64
2022-10-30T09:07:13.018Z,33.02
2022-10-30T09:08:11.763Z,32.75
2022-10-30T09:09:12.277Z,32.97
2022-10-30T09:10:12.799Z,35.21
2022-10-30T09:11:13.352Z,33.79
2022-10-30T09:12:13.848Z,32.76
2022-10-30T09:13:14.352Z,32.04
2022-10-30T09:14:14.883Z,31.64
2022-10-30T09:15:15.386Z,31.23
2022-10-30T09:16:15.985Z,30.42
2022-10-30T09:17:16.487Z,29.52
2022-10-30T09:18:16.990Z,28.92
2022-10-30T09:19:18.911Z,29.24
2022-10-30T09:20:18.107Z,32.40
2022-10-30T09:21:18.653Z,34.13
2022-10-30T09:22:19.163Z,36.65
2022-10-30T09:23:19.663Z,36.11
2022-10-30T09:24:20.164Z,35.10
2022-10-30T09:25:20.692Z,37.44
2022-10-30T09:26:21.227Z,39.31
2022-10-30T09:27:21.723Z,40.55
2022-10-30T09:28:22.219Z,41.06
2022-10-30T09:29:22.725Z,41.38
2022-10-30T09:30:23.319Z,40.03
2022-10-30T09:31:23.893Z,39.15
2022-10-30T09:32:24.398Z,39.48
2022-10-30T09:33:24.898Z,40.07
2022-10-30T09:34:25.456Z,40.48
2022-10-30T09:35:26.002Z,41.52
2022-10-30T09:36:26.639Z,42.32
2022-10-30T09:37:27.136Z,43.85
2022-10-30T09:38:27.640Z,44.67
2022-10-30T09:39:28.136Z,46.69
2022-10-30T09:40:28.662Z,47.63
2022-10-30T09:41:29.291Z,48.96
2022-10-30T09:42:29.812Z,50.10
2022-10-30T09:43:30.317Z,50.63
2022-10-30T09:44:30.820Z,50.03
2022-10-30T09:45:31.324Z,50.75
2022-10-30T09:46:31.864Z,50.85
2022-10-30T09:47:33.295Z,50.87
2022-10-30T09:48:33.312Z,50.68
2022-10-30T09:49:33.815Z,52.59
2022-10-30T09:50:37.230Z,52.37
2022-10-30T09:51:35.205Z,51.37
2022-10-30T09:52:35.730Z,51.45
2022-10-30T09:53:36.231Z,48.84
2022-10-30T09:54:36.733Z,43.59
2022-10-30T09:55:37.266Z,42.80
2022-10-30T09:56:37.830Z,44.23
2022-10-30T09:57:38.348Z,45.95
2022-10-30T09:58:38.843Z,46.55
2022-10-30T09:59:39.344Z,42.52
2022-10-30T10:00:39.844Z,40.05
2022-10-30T10:01:40.682Z,37.52
2022-10-30T10:02:41.426Z,36.51
2022-10-30T10:03:42.156Z,35.86
2022-10-30T10:04:42.748Z,34.84
2022-10-30T10:05:43.252Z,34.31
2022-10-30T10:06:43.785Z,33.31
2022-10-30T10:07:44.311Z,35.19
2022-10-30T10:08:44.816Z,37.24
2022-10-30T10:09:45.446Z,38.56
2022-10-30T10:10:45.983Z,39.18
2022-10-30T10:11:46.532Z,39.48
2022-10-30T10:12:47.050Z,39.48
2022-10-30T10:13:47.561Z,38.76
2022-10-30T10:14:48.064Z,38.66
2022-10-30T10:15:48.586Z,36.74
2022-10-30T10:16:49.189Z,38.26
2022-10-30T10:17:49.686Z,39.40
2022-10-30T10:18:50.185Z,40.82
2022-10-30T10:19:50.688Z,41.06
2022-10-30T10:20:51.191Z,41.69
2022-10-30T10:21:51.725Z,42.13
2022-10-30T10:22:52.343Z,42.57
2022-10-30T10:23:52.882Z,43.38
2022-10-30T10:24:53.390Z,42.52
2022-10-30T10:25:53.932Z,39.32
2022-10-30T10:26:54.485Z,36.97
2022-10-30T10:27:54.987Z,34.92
2022-10-30T10:28:55.501Z,33.58
2022-10-30T10:29:56.003Z,32.24
2022-10-30T10:30:56.502Z,30.93
2022-10-30T10:31:57.163Z,29.91
2022-10-30T10:32:58.075Z,29.49
2022-10-30T10:33:58.333Z,29.61
2022-10-30T10:34:58.839Z,30.10
2022-10-30T10:35:59.335Z,30.02
2022-10-30T10:36:59.931Z,29.58
2022-10-30T10:38:00.730Z,28.69
2022-10-30T10:39:00.966Z,28.47
2022-10-30T10:40:01.474Z,27.97
2022-10-30T10:41:02.005Z,27.89
2022-10-30T10:42:02.651Z,28.92
2022-10-30T10:43:03.156Z,30.15
2022-10-30T10:44:03.653Z,33.18
2022-10-30T10:45:04.156Z,33.69
2022-10-30T10:46:04.651Z,31.36
2022-10-30T10:47:07.339Z,30.13
2022-10-30T10:48:06.183Z,30.11
2022-10-30T10:49:06.761Z,30.60
2022-10-30T10:50:07.268Z,29.81
2022-10-30T10:51:07.771Z,29.21
2022-10-30T10:52:08.307Z,28.90
2022-10-30T10:53:08.819Z,28.89
2022-10-30T10:54:09.314Z,28.49
2022-10-30T10:55:09.819Z,27.87
2022-10-30T10:56:10.346Z,27.87
2022-10-30T10:57:10.906Z,27.48
2022-10-30T10:58:11.411Z,28.19
2022-10-30T10:59:11.914Z,29.19
2022-10-30T11:00:12.570Z,30.22
2022-10-30T11:01:13.140Z,32.26
2022-10-30T11:02:13.920Z,34.57
2022-10-30T11:03:14.493Z,34.70
2022-10-30T11:04:15.004Z,34.70
2022-10-30T11:05:15.508Z,35.10
2022-10-30T11:06:16.010Z,33.98
2022-10-30T11:07:16.567Z,32.29
2022-10-30T11:08:17.076Z,31.56
2022-10-30T11:09:17.584Z,31.23
2022-10-30T11:10:18.090Z,29.75
2022-10-30T11:11:18.627Z,29.85
2022-10-30T11:12:19.167Z,29.24
2022-10-30T11:13:19.669Z,29.44
2022-10-30T11:14:20.174Z,30.05
2022-10-30T11:15:20.674Z,29.83
2022-10-30T11:16:21.186Z,28.83
2022-10-30T11:17:21.717Z,28.12
2022-10-30T11:18:22.233Z,28.03
2022-10-30T11:19:22.734Z,28.50
2022-10-30T11:20:23.253Z,28.19
2022-10-30T11:21:23.756Z,27.59
2022-10-30T11:22:24.364Z,27.59
2022-10-30T11:23:24.869Z,28.09
2022-10-30T11:24:25.372Z,28.70
2022-10-30T11:25:30.302Z,28.82
2022-10-30T11:26:26.769Z,29.43
2022-10-30T11:27:27.383Z,29.43
2022-10-30T11:28:27.885Z,28.22
2022-10-30T11:29:28.381Z,27.61
2022-10-30T11:30:28.931Z,27.39
2022-10-30T11:31:29.462Z,26.89
2022-10-30T11:32:30.107Z,26.39
2022-10-30T11:33:30.718Z,26.90
2022-10-30T11:34:31.219Z,27.29
2022-10-30T11:35:31.719Z,28.02
2022-10-30T11:36:32.213Z,29.14
2022-10-30T11:37:32.812Z,29.25
2022-10-30T11:38:33.320Z,28.93
2022-10-30T11:39:33.829Z,28.63
2022-10-30T11:40:34.330Z,28.42
2022-10-30T11:41:34.876Z,27.61
2022-10-30T11:42:35.916Z,27.31
2022-10-30T11:43:35.911Z,27.58
2022-10-30T11:44:36.421Z,27.58
2022-10-30T11:45:36.929Z,27.97
2022-10-30T11:46:37.421Z,27.87
2022-10-30T11:47:37.954Z,27.28
2022-10-30T11:48:38.463Z,27.79
2022-10-30T11:49:38.979Z,29.22
2022-10-30T11:50:39.481Z,30.86
2022-10-30T11:51:40.047Z,33.39
2022-10-30T11:52:40.675Z,35.52
2022-10-30T11:53:41.187Z,35.54
2022-10-30T11:54:41.683Z,34.92
2022-10-30T11:55:42.190Z,33.18
2022-10-30T11:56:42.752Z,31.88
2022-10-30T11:57:43.364Z,32.27
2022-10-30T11:58:43.873Z,32.94
2022-10-30T11:59:44.381Z,31.65
2022-10-30T12:00:44.879Z,31.77
2022-10-30T12:01:45.433Z,31.98
2022-10-30T12:02:46.165Z,31.99
2022-10-30T12:03:46.746Z,32.92
2022-10-30T12:04:47.247Z,33.23
2022-10-30T12:05:50.244Z,33.84
2022-10-30T12:06:48.468Z,33.46
2022-10-30T12:07:49.003Z,33.44
2022-10-30T12:08:49.505Z,33.14
2022-10-30T12:09:50.003Z,33.22
2022-10-30T12:10:50.517Z,32.22
2022-10-30T12:11:51.029Z,31.18
2022-10-30T12:12:51.573Z,30.65
2022-10-30T12:13:52.076Z,30.74
2022-10-30T12:14:52.578Z,30.84
2022-10-30T12:15:53.085Z,31.16
2022-10-30T12:16:53.588Z,33.31
2022-10-30T12:17:54.116Z,34.81
2022-10-30T12:18:54.638Z,33.89
2022-10-30T12:19:55.171Z,32.65
2022-10-30T12:20:55.668Z,31.46
2022-10-30T12:21:56.171Z,31.87
2022-10-30T12:22:57.108Z,32.19
2022-10-30T12:23:57.351Z,32.78
2022-10-30T12:24:57.850Z,33.10
2022-10-30T12:25:58.355Z,33.50
2022-10-30T12:26:58.881Z,32.58
2022-10-30T12:27:59.450Z,31.18
2022-10-30T12:28:59.954Z,30.76
2022-10-30T12:30:08.436Z,30.55
2022-10-30T12:31:01.320Z,30.77
2022-10-30T12:32:01.827Z,30.87
2022-10-30T12:33:02.616Z,30.66
2022-10-30T12:34:03.304Z,30.57
2022-10-30T12:35:03.887Z,30.26
2022-10-30T12:36:04.382Z,30.26
2022-10-30T12:37:04.878Z,30.15
2022-10-30T12:38:05.413Z,30.34
2022-10-30T12:39:05.910Z,30.22
2022-10-30T12:40:06.419Z,31.12
2022-10-30T12:41:06.920Z,31.35
2022-10-30T12:42:07.448Z,31.23
2022-10-30T12:43:08.080Z,31.35
2022-10-30T12:44:08.583Z,31.33
2022-10-30T12:45:09.088Z,31.04
2022-10-30T12:46:09.588Z,30.54
2022-10-30T12:47:10.106Z,31.22
2022-10-30T12:48:10.638Z,31.23
2022-10-30T12:49:11.142Z,32.35
2022-10-30T12:50:11.636Z,33.58
2022-10-30T12:51:12.150Z,33.36
2022-10-30T12:52:12.685Z,34.57
2022-10-30T12:53:13.250Z,34.78
2022-10-30T12:54:13.756Z,34.90
2022-10-30T12:55:14.254Z,35.08
2022-10-30T12:56:14.751Z,34.36
2022-10-30T12:57:15.274Z,33.15
2022-10-30T12:58:15.923Z,32.35
2022-10-30T12:59:16.430Z,32.13
2022-10-30T13:00:16.932Z,31.74
2022-10-30T13:01:17.608Z,31.43